createdAt,value
2023-04-15T00:01:20.907Z,3.20
2023-04-15T00:03:56.252Z,3.03
2023-04-15T00:06:24.788Z,2.30
2023-04-15T00:08:53.077Z,2.60
2023-04-15T00:11:22.413Z,2.83
2023-04-15T00:13:50.423Z,3.13
2023-04-15T00:16:42.098Z,3.30
2023-04-15T00:19:10.324Z,2.87
2023-04-15T00:21:40.056Z,2.60
2023-04-15T00:24:08.399Z,2.87
2023-04-15T00:26:39.589Z,2.70
2023-04-15T00:29:10.119Z,3.27
2023-04-15T00:31:39.882Z,2.57
2023-04-15T00:34:09.377Z,2.43
2023-04-15T00:36:37.665Z,2.93
2023-04-15T00:39:08.102Z,2.50
2023-04-15T00:41:39.165Z,2.70
2023-04-15T00:44:08.062Z,2.40
2023-04-15T00:46:39.865Z,2.13
2023-04-15T00:49:08.402Z,2.50
2023-04-15T00:51:37.161Z,2.40
2023-04-15T00:54:07.829Z,2.50
2023-04-15T00:56:38.116Z,2.47
2023-04-15T00:59:07.033Z,2.93
2023-04-15T01:01:39.380Z,3.33
2023-04-15T01:04:10.157Z,2.63
2023-04-15T01:06:38.671Z,2.97
2023-04-15T01:09:06.576Z,2.70
2023-04-15T01:11:35.435Z,2.93
2023-04-15T01:14:06.040Z,3.23
2023-04-15T01:16:34.083Z,2.30
2023-04-15T01:19:03.724Z,2.63
2023-04-15T01:21:31.758Z,2.30
2023-04-15T01:24:00.953Z,1.80
2023-04-15T01:26:30.922Z,2.27
2023-04-15T01:28:58.915Z,2.30
2023-04-15T01:31:27.590Z,2.57
2023-04-15T01:33:56.023Z,2.80
2023-04-15T01:36:23.869Z,2.80
2023-04-15T01:38:54.900Z,2.50
2023-04-15T01:41:26.800Z,2.37
2023-04-15T01:43:57.403Z,2.40
2023-04-15T01:46:25.787Z,2.20
2023-04-15T01:48:54.833Z,3.33
2023-04-15T01:51:23.227Z,2.50
2023-04-15T01:53:52.278Z,2.90
2023-04-15T01:56:20.369Z,2.13
2023-04-15T01:58:48.471Z,2.50
2023-04-15T02:01:19.764Z,2.70
2023-04-15T02:03:48.772Z,2.37
2023-04-15T02:06:17.156Z,2.40
2023-04-15T02:08:45.928Z,2.70
2023-04-15T02:11:16.015Z,2.63
2023-04-15T02:13:44.455Z,2.23
2023-04-15T02:16:20.655Z,3.10
2023-04-15T02:18:49.075Z,2.90
2023-04-15T02:21:19.493Z,2.70
2023-04-15T02:23:48.348Z,3.33
2023-04-15T02:26:16.952Z,3.10
2023-04-15T02:28:45.319Z,2.80
2023-04-15T02:31:16.163Z,2.90
2023-04-15T02:33:46.068Z,2.63
2023-04-15T02:36:14.574Z,2.73
2023-04-15T02:38:43.373Z,2.50
2023-04-15T02:41:11.371Z,3.17
2023-04-15T02:43:40.060Z,3.03
2023-04-15T02:46:14.342Z,2.80
2023-04-15T02:48:42.884Z,2.70
2023-04-15T02:51:16.731Z,2.23
2023-04-15T02:53:44.843Z,2.43
2023-04-15T02:56:12.800Z,2.87
2023-04-15T02:58:41.381Z,2.43
2023-04-15T03:01:09.815Z,2.20
2023-04-15T03:03:38.513Z,2.70
2023-04-15T03:06:07.089Z,2.50
2023-04-15T03:08:42.165Z,2.37
2023-04-15T03:11:12.400Z,2.80
2023-04-15T03:13:43.343Z,3.37
2023-04-15T03:16:22.332Z,2.13
2023-04-15T03:18:50.494Z,2.60
2023-04-15T03:21:19.857Z,2.50
2023-04-15T03:23:51.749Z,2.13
2023-04-15T03:26:28.097Z,2.47
2023-04-15T03:28:59.575Z,2.70
2023-04-15T03:31:27.683Z,3.03
2023-04-15T03:33:55.864Z,3.00
2023-04-15T03:36:24.712Z,2.87
2023-04-15T03:38:53.955Z,2.50
2023-04-15T03:41:22.598Z,2.50
2023-04-15T03:43:52.194Z,2.67
2023-04-15T03:46:20.398Z,2.57
2023-04-15T03:48:48.589Z,2.97
2023-04-15T03:51:17.092Z,2.70
2023-04-15T03:53:44.958Z,2.73
2023-04-15T03:56:14.157Z,3.07
2023-04-15T03:58:44.159Z,2.67
2023-04-15T04:01:12.158Z,3.20
2023-04-15T04:03:40.330Z,2.27
2023-04-15T04:06:08.460Z,2.10
2023-04-15T04:08:36.285Z,2.17
2023-04-15T04:11:07.100Z,2.80
2023-04-15T04:13:36.741Z,2.43
2023-04-15T04:16:06.203Z,2.53
2023-04-15T04:18:34.715Z,3.07
2023-04-15T04:21:02.683Z,2.50
2023-04-15T04:23:30.599Z,2.77
2023-04-15T04:25:58.679Z,2.70
2023-04-15T04:28:26.950Z,2.40
2023-04-15T04:30:58.870Z,3.00
2023-04-15T04:33:26.806Z,2.60
2023-04-15T04:35:54.783Z,3.07
2023-04-15T04:38:22.761Z,2.20
2023-04-15T04:40:50.745Z,3.27
2023-04-15T04:43:18.927Z,2.37
2023-04-15T04:45:46.894Z,2.50
2023-04-15T04:48:17.059Z,2.33
2023-04-15T04:50:47.058Z,2.13
2023-04-15T04:53:16.130Z,2.90
2023-04-15T04:55:44.433Z,3.13
2023-04-15T04:58:14.877Z,2.70
2023-04-15T05:00:43.350Z,2.53
2023-04-15T05:03:15.493Z,2.90
2023-04-15T05:05:44.936Z,2.90
2023-04-15T05:08:14.409Z,2.57
2023-04-15T05:10:43.322Z,3.13
2023-04-15T05:13:12.605Z,2.73
2023-04-15T05:15:41.390Z,2.70
2023-04-15T05:18:09.644Z,3.40
2023-04-15T05:20:37.497Z,3.30
2023-04-15T05:23:06.907Z,2.90
2023-04-15T05:25:35.251Z,3.37
2023-04-15T05:28:03.441Z,2.90
2023-04-15T05:30:31.362Z,3.33
2023-04-15T05:32:59.533Z,2.67
2023-04-15T05:35:28.561Z,2.50
2023-04-15T05:37:56.407Z,3.03
2023-04-15T05:40:28.206Z,3.13
2023-04-15T05:42:58.546Z,3.27
2023-04-15T05:45:27.904Z,3.20
2023-04-15T05:47:56.129Z,2.80
2023-04-15T05:50:23.979Z,2.80
2023-04-15T05:52:51.819Z,3.30
2023-04-15T05:55:20.254Z,3.40
2023-04-15T05:57:49.425Z,2.70
2023-04-15T06:00:21.315Z,3.60
2023-04-15T06:02:49.955Z,3.10
2023-04-15T06:05:19.141Z,2.60
2023-04-15T06:07:48.556Z,3.30
2023-04-15T06:10:17.940Z,3.73
2023-04-15T06:12:45.945Z,3.63
2023-04-15T06:15:15.384Z,2.70
2023-04-15T06:17:46.213Z,3.20
2023-04-15T06:20:14.826Z,3.57
2023-04-15T06:22:42.683Z,3.90
2023-04-15T06:25:13.157Z,3.17
2023-04-15T06:27:41.461Z,3.97
2023-04-15T06:30:10.549Z,3.67
2023-04-15T06:32:40.946Z,3.17
2023-04-15T06:35:09.519Z,3.27
2023-04-15T06:37:37.388Z,3.33
2023-04-15T06:40:06.753Z,3.53
2023-04-15T06:42:35.038Z,3.27
2023-04-15T06:45:03.598Z,3.70
2023-04-15T06:47:32.945Z,3.47
2023-04-15T06:50:03.971Z,3.43
2023-04-15T06:52:32.789Z,3.80
2023-04-15T06:55:01.030Z,4.73
2023-04-15T06:57:31.589Z,4.23
2023-04-15T07:00:01.205Z,3.87
2023-04-15T07:02:30.259Z,4.30
2023-04-15T07:04:58.538Z,4.50
2023-04-15T07:07:27.736Z,4.20
2023-04-15T07:09:56.352Z,3.73
2023-04-15T07:12:24.481Z,3.30
2023-04-15T07:14:52.370Z,4.10
2023-04-15T07:17:20.851Z,4.23
2023-04-15T07:19:49.291Z,4.53
2023-04-15T07:22:17.301Z,4.57
2023-04-15T07:24:47.730Z,4.60
2023-04-15T07:27:17.917Z,6.00
2023-04-15T07:29:46.952Z,4.23
2023-04-15T07:32:14.826Z,4.00
2023-04-15T07:34:45.626Z,4.87
2023-04-15T07:37:13.898Z,4.70
2023-04-15T07:39:42.691Z,4.93
2023-04-15T07:42:12.175Z,5.40
2023-04-15T07:44:40.486Z,4.63
2023-04-15T07:47:09.618Z,5.27
2023-04-15T07:49:37.763Z,5.30
2023-04-15T07:52:05.945Z,4.70
2023-04-15T07:54:33.897Z,5.07
2023-04-15T07:57:03.429Z,5.20
2023-04-15T07:59:33.491Z,4.50
2023-04-15T08:02:01.767Z,5.60
2023-04-15T08:04:30.357Z,5.30
2023-04-15T08:06:59.080Z,5.73
2023-04-15T08:09:27.203Z,6.00
2023-04-15T08:11:56.808Z,5.23
2023-04-15T08:14:25.755Z,5.83
2023-04-15T08:16:55.737Z,5.07
2023-04-15T08:19:24.286Z,4.90
2023-04-15T08:21:52.917Z,5.70
2023-04-15T08:24:21.306Z,5.00
2023-04-15T08:26:49.178Z,5.10
2023-04-15T08:29:18.031Z,4.93
2023-04-15T08:31:46.253Z,5.87
2023-04-15T08:34:16.047Z,5.60
2023-04-15T08:36:44.322Z,4.63
2023-04-15T08:39:12.510Z,5.40
2023-04-15T08:41:44.027Z,4.37
2023-04-15T08:44:12.345Z,5.00
2023-04-15T08:46:40.847Z,4.87
2023-04-15T08:49:12.280Z,5.13
2023-04-15T08:51:42.345Z,4.23
2023-04-15T08:54:13.892Z,4.30
2023-04-15T08:56:42.613Z,4.37
2023-04-15T08:59:11.464Z,4.73
2023-04-15T09:01:39.907Z,4.20
2023-04-15T09:04:08.400Z,4.20
2023-04-15T09:06:37.027Z,3.87
2023-04-15T09:09:07.047Z,4.57
2023-04-15T09:11:38.220Z,3.60
2023-04-15T09:14:06.997Z,4.20
2023-04-15T09:17:00.858Z,3.60
2023-04-15T09:19:29.292Z,3.97
2023-04-15T09:21:59.565Z,4.00
2023-04-15T09:24:38.048Z,3.33
2023-04-15T09:27:08.618Z,4.50
2023-04-15T09:29:37.379Z,3.83
2023-04-15T09:32:12.628Z,3.87
2023-04-15T09:34:40.653Z,3.70
2023-04-15T09:37:10.965Z,3.90
2023-04-15T09:39:50.530Z,4.20
2023-04-15T09:42:24.763Z,3.93
2023-04-15T09:44:53.710Z,3.47
2023-04-15T09:47:32.333Z,4.03
2023-04-15T09:50:02.438Z,3.60
2023-04-15T09:52:38.046Z,3.50
2023-04-15T09:55:09.219Z,3.30
2023-04-15T09:57:38.461Z,3.60
2023-04-15T10:00:08.127Z,4.03
2023-04-15T10:02:37.371Z,3.97
2023-04-15T10:05:07.345Z,3.83
2023-04-15T10:07:35.879Z,3.77
2023-04-15T10:10:09.774Z,3.63
2023-04-15T10:12:42.245Z,3.43
2023-04-15T10:15:16.386Z,3.63
2023-04-15T10:17:45.625Z,3.47
2023-04-15T10:20:15.931Z,3.13
2023-04-15T10:22:46.364Z,2.60
2023-04-15T10:25:16.922Z,2.80
2023-04-15T10:27:46.430Z,3.70
2023-04-15T10:30:14.641Z,2.70
2023-04-15T10:32:46.443Z,2.80
2023-04-15T10:35:15.507Z,2.93
2023-04-15T10:37:49.170Z,2.83
2023-04-15T10:40:27.305Z,2.57
2023-04-15T10:42:57.902Z,2.70
2023-04-15T10:45:29.624Z,2.70
2023-04-15T10:48:06.629Z,2.50
2023-04-15T10:50:34.737Z,2.30
2023-04-15T10:53:05.060Z,2.20
2023-04-15T10:55:34.646Z,2.07
2023-04-15T10:58:04.837Z,1.90
2023-04-15T11:00:35.730Z,1.60
2023-04-15T11:03:08.178Z,2.10
2023-04-15T11:05:53.699Z,1.80
2023-04-15T11:08:42.273Z,1.70
2023-04-15T11:11:58.235Z,2.10
2023-04-15T11:14:29.111Z,1.80
2023-04-15T11:16:57.120Z,1.30
2023-04-15T11:19:27.310Z,1.67
2023-04-15T11:21:56.199Z,1.43
2023-04-15T11:24:27.652Z,1.40
2023-04-15T11:26:58.750Z,1.33
2023-04-15T11:29:32.813Z,1.27
2023-04-15T11:32:07.980Z,1.57
2023-04-15T11:34:36.687Z,1.30
2023-04-15T11:37:06.550Z,1.17
2023-04-15T11:39:35.731Z,1.33
2023-04-15T11:42:03.880Z,1.50
2023-04-15T11:44:33.812Z,1.20
2023-04-15T11:47:01.608Z,1.23
2023-04-15T11:49:30.815Z,1.17
2023-04-15T11:51:58.748Z,1.37
2023-04-15T11:54:27.031Z,1.37
2023-04-15T11:56:56.635Z,1.30
2023-04-15T11:59:38.940Z,1.40
2023-04-15T12:02:15.503Z,1.20
2023-04-15T12:04:46.257Z,1.50
2023-04-15T12:07:16.623Z,1.50
2023-04-15T12:09:56.740Z,1.53
2023-04-15T12:12:28.893Z,1.67
2023-04-15T12:14:59.374Z,1.50
2023-04-15T12:17:29.458Z,1.70
2023-04-15T12:20:23.349Z,1.33
2023-04-15T12:22:53.877Z,1.50
2023-04-15T12:25:35.367Z,1.80
2023-04-15T12:28:03.772Z,1.50
2023-04-15T12:30:32.167Z,1.60
2023-04-15T12:33:03.026Z,1.90
2023-04-15T12:35:31.807Z,2.20
2023-04-15T12:37:59.930Z,2.17
2023-04-15T12:40:28.043Z,2.10
2023-04-15T12:42:56.505Z,1.67
2023-04-15T12:45:24.752Z,1.97
2023-04-15T12:47:52.956Z,1.63
2023-04-15T12:50:22.207Z,1.70
2023-04-15T12:52:50.758Z,1.50
2023-04-15T12:55:19.251Z,1.50
2023-04-15T12:57:47.219Z,2.13
2023-04-15T13:00:16.456Z,2.07
2023-04-15T13:02:45.320Z,1.70
2023-04-15T13:05:14.695Z,1.80
2023-04-15T13:07:43.905Z,1.67
2023-04-15T13:10:13.300Z,1.70
2023-04-15T13:12:41.678Z,1.70
2023-04-15T13:15:11.517Z,1.97
2023-04-15T13:17:39.838Z,1.90
2023-04-15T13:20:08.917Z,1.37
2023-04-15T13:22:36.837Z,1.87
2023-04-15T13:25:07.939Z,1.60
2023-04-15T13:27:39.611Z,2.10
2023-04-15T13:30:08.494Z,1.40
2023-04-15T13:32:36.515Z,1.93
2023-04-15T13:35:05.207Z,1.93
2023-04-15T13:37:33.340Z,2.03
2023-04-15T13:40:01.690Z,2.37
2023-04-15T13:42:43.374Z,1.80
2023-04-15T13:45:13.416Z,2.20
2023-04-15T13:47:43.483Z,1.87
2023-04-15T13:50:12.024Z,1.93
2023-04-15T13:52:41.393Z,2.17
2023-04-15T13:55:19.899Z,1.67
2023-04-15T13:57:52.352Z,2.10
2023-04-15T14:00:22.245Z,3.00
2023-04-15T14:02:51.005Z,2.00
2023-04-15T14:05:19.842Z,1.90
2023-04-15T14:07:47.987Z,1.70
2023-04-15T14:10:15.975Z,1.93
2023-04-15T14:12:44.022Z,2.10
2023-04-15T14:15:15.735Z,1.30
2023-04-15T14:17:43.929Z,1.70
2023-04-15T14:20:12.189Z,1.40
2023-04-15T14:22:42.656Z,1.47
2023-04-15T14:25:17.304Z,1.57
2023-04-15T14:27:51.557Z,1.80
2023-04-15T14:30:21.104Z,1.63
2023-04-15T14:32:49.344Z,1.43
2023-04-15T14:35:17.563Z,1.80
2023-04-15T14:37:45.557Z,1.60
2023-04-15T14:40:18.322Z,2.40
2023-04-15T14:42:48.839Z,1.63
2023-04-15T14:45:17.535Z,1.90
2023-04-15T14:47:47.006Z,1.70
2023-04-15T14:50:15.813Z,2.10
2023-04-15T14:52:44.003Z,1.80
2023-04-15T14:55:13.460Z,1.97
2023-04-15T14:57:43.208Z,1.50
2023-04-15T15:00:15.428Z,1.90
2023-04-15T15:02:44.369Z,1.80
2023-04-15T15:05:13.927Z,2.10
2023-04-15T15:07:42.502Z,1.87
2023-04-15T15:10:10.570Z,1.70
2023-04-15T15:12:38.946Z,2.17
2023-04-15T15:15:19.540Z,2.47
2023-04-15T15:17:55.792Z,1.77
2023-04-15T15:20:25.942Z,2.10
2023-04-15T15:22:57.051Z,2.00
2023-04-15T15:25:25.260Z,1.60
2023-04-15T15:27:54.061Z,1.80
2023-04-15T15:30:22.075Z,1.80
2023-04-15T15:32:49.952Z,2.23
2023-04-15T15:35:18.552Z,2.70
2023-04-15T15:37:48.520Z,1.73
2023-04-15T15:40:16.636Z,2.10
2023-04-15T15:42:50.858Z,1.70
2023-04-15T15:45:19.029Z,1.60
2023-04-15T15:47:47.006Z,1.73
2023-04-15T15:50:15.687Z,1.40
2023-04-15T15:52:44.185Z,1.87
2023-04-15T15:55:13.940Z,1.70
2023-04-15T15:57:42.102Z,1.57
2023-04-15T16:00:12.878Z,1.87
2023-04-15T16:05:15.924Z,1.40
2023-04-15T16:07:44.225Z,1.70
2023-04-15T16:10:16.297Z,1.70
2023-04-15T16:12:44.556Z,1.70
2023-04-15T16:15:13.625Z,1.90
2023-04-15T16:17:42.172Z,1.80
2023-04-15T16:20:12.330Z,1.83
2023-04-15T16:22:41.830Z,1.50
2023-04-15T16:25:10.673Z,1.80
2023-04-15T16:27:57.225Z,1.40
2023-04-15T16:30:27.332Z,1.80
2023-04-15T16:32:57.729Z,1.70
2023-04-15T16:35:25.904Z,1.80
2023-04-15T16:37:54.020Z,1.47
2023-04-15T16:40:22.018Z,1.63
2023-04-15T16:42:52.227Z,1.87
2023-04-15T16:45:33.733Z,1.70
2023-04-15T16:48:03.244Z,1.63
2023-04-15T16:50:33.853Z,1.40
2023-04-15T16:53:02.248Z,1.47
2023-04-15T16:55:30.244Z,1.43
2023-04-15T16:58:02.670Z,2.00
2023-04-15T17:00:32.125Z,1.40
2023-04-15T17:03:06.137Z,1.40
2023-04-15T17:05:35.071Z,1.47
2023-04-15T17:08:03.098Z,1.60
2023-04-15T17:10:31.775Z,1.60
2023-04-15T17:13:01.391Z,1.30
2023-04-15T17:15:29.475Z,1.77
2023-04-15T17:17:58.223Z,1.73
2023-04-15T17:20:30.132Z,1.60
2023-04-15T17:22:58.689Z,1.57
2023-04-15T17:25:26.544Z,2.00
2023-04-15T17:27:54.628Z,1.50
2023-04-15T17:30:24.792Z,1.70
2023-04-15T17:32:52.962Z,2.00
2023-04-15T17:35:24.650Z,1.83
2023-04-15T17:37:53.381Z,1.70
2023-04-15T17:40:22.379Z,3.90
2023-04-15T17:42:50.773Z,4.73
2023-04-15T17:45:18.859Z,4.73
2023-04-15T17:47:49.046Z,3.07
2023-04-15T17:50:17.289Z,2.33
2023-04-15T17:52:45.258Z,3.10
2023-04-15T17:55:13.522Z,2.50
2023-04-15T17:57:43.657Z,2.03
2023-04-15T18:00:12.641Z,2.10
2023-04-15T18:02:41.677Z,2.13
2023-04-15T18:05:11.898Z,1.90
2023-04-15T18:07:40.022Z,1.93
2023-04-15T18:10:09.677Z,1.80
2023-04-15T18:12:37.679Z,1.70
2023-04-15T18:15:06.459Z,1.70
2023-04-15T18:17:34.379Z,1.90
2023-04-15T18:20:02.666Z,1.50
2023-04-15T18:22:32.185Z,1.90
2023-04-15T18:25:04.064Z,1.77
2023-04-15T18:27:32.521Z,1.50
2023-04-15T18:30:00.829Z,1.37
2023-04-15T18:32:31.868Z,1.63
2023-04-15T18:35:00.304Z,1.50
2023-04-15T18:37:30.792Z,1.67
2023-04-15T18:40:01.642Z,1.50
2023-04-15T18:42:29.706Z,1.70
2023-04-15T18:44:57.595Z,1.40
2023-04-15T18:47:28.525Z,1.60
2023-04-15T18:49:58.430Z,1.47
2023-04-15T18:52:26.754Z,1.60
2023-04-15T18:54:54.700Z,1.73
2023-04-15T18:57:28.792Z,1.60
2023-04-15T18:59:59.585Z,1.50
2023-04-15T19:02:30.255Z,1.60
2023-04-15T19:04:58.247Z,1.70
2023-04-15T19:07:26.676Z,1.30
2023-04-15T19:09:54.694Z,1.63
2023-04-15T19:12:24.588Z,2.37
2023-04-15T19:14:52.683Z,1.40
2023-04-15T19:17:21.291Z,1.47
2023-04-15T19:19:49.482Z,1.60
2023-04-15T19:22:17.629Z,1.63
2023-04-15T19:24:46.982Z,1.70
2023-04-15T19:27:15.941Z,2.30
2023-04-15T19:29:45.723Z,1.37
2023-04-15T19:32:14.298Z,1.80
2023-04-15T19:34:42.152Z,1.90
2023-04-15T19:37:12.102Z,1.73
2023-04-15T19:39:40.078Z,1.83
2023-04-15T19:42:10.215Z,1.67
2023-04-15T19:44:42.572Z,1.80
2023-04-15T19:47:12.448Z,2.00
2023-04-15T19:49:41.076Z,1.60
2023-04-15T19:52:09.357Z,1.80
2023-04-15T19:54:37.302Z,2.33
2023-04-15T19:57:05.844Z,2.10
2023-04-15T19:59:33.986Z,1.80
2023-04-15T20:02:02.086Z,2.30
2023-04-15T20:04:31.901Z,1.97
2023-04-15T20:07:00.280Z,2.20
2023-04-15T20:09:28.119Z,1.73
2023-04-15T20:12:46.839Z,1.90
2023-04-15T20:14:46.425Z,2.50
2023-04-15T20:17:15.761Z,1.90
2023-04-15T20:19:45.221Z,2.37
2023-04-15T20:22:13.187Z,2.23
2023-04-15T20:24:41.099Z,2.00
2023-04-15T20:27:09.259Z,1.87
2023-04-15T20:29:37.726Z,2.00
2023-04-15T20:32:06.709Z,1.73
2023-04-15T20:34:35.113Z,1.90
2023-04-15T20:37:07.154Z,1.97
2023-04-15T20:39:36.459Z,2.27
2023-04-15T20:42:10.073Z,2.10
2023-04-15T20:44:38.609Z,2.10
2023-04-15T20:47:07.322Z,2.57
2023-04-15T20:49:35.910Z,2.73
2023-04-15T20:52:04.323Z,1.87
2023-04-15T20:54:33.900Z,2.17
2023-04-15T20:57:02.539Z,1.67
2023-04-15T20:59:32.399Z,1.90
2023-04-15T21:02:00.717Z,1.73
2023-04-15T21:04:28.836Z,1.70
2023-04-15T21:06:56.814Z,1.67
2023-04-15T21:09:25.379Z,2.00
2023-04-15T21:12:01.277Z,1.73
2023-04-15T21:14:29.855Z,2.17
2023-04-15T21:16:58.352Z,1.50
2023-04-15T21:19:26.737Z,2.00
2023-04-15T21:21:54.649Z,1.73
2023-04-15T21:24:22.624Z,1.83
2023-04-15T21:26:50.542Z,1.93
2023-04-15T21:29:20.239Z,2.13
2023-04-15T21:31:49.118Z,2.13
2023-04-15T21:34:17.941Z,1.77
2023-04-15T21:36:46.467Z,1.70
2023-04-15T21:39:17.326Z,1.87
2023-04-15T21:41:45.347Z,1.70
2023-04-15T21:44:14.810Z,2.27
2023-04-15T21:46:45.756Z,1.70
2023-04-15T21:49:14.486Z,1.70
2023-04-15T21:51:42.485Z,1.93
2023-04-15T21:54:10.809Z,1.50
2023-04-15T21:56:38.972Z,1.37
2023-04-15T21:59:07.587Z,1.80
2023-04-15T22:01:36.213Z,2.00
2023-04-15T22:04:07.501Z,1.77
2023-04-15T22:06:35.973Z,1.90
2023-04-15T22:09:04.186Z,1.83
2023-04-15T22:11:32.399Z,2.20
2023-04-15T22:14:00.654Z,2.00
2023-04-15T22:16:29.145Z,2.20
2023-04-15T22:18:57.205Z,2.80
2023-04-15T22:21:26.719Z,2.20
2023-04-15T22:24:35.252Z,2.23
2023-04-15T22:26:44.235Z,2.17
2023-04-15T22:29:12.137Z,2.60
2023-04-15T22:31:42.903Z,2.30
2023-04-15T22:34:14.846Z,2.50
2023-04-15T22:36:46.759Z,2.20
2023-04-15T22:39:16.918Z,2.27
2023-04-15T22:41:45.090Z,2.50
2023-04-15T22:44:14.571Z,2.33
2023-04-15T22:46:42.523Z,2.63
2023-04-15T22:49:11.026Z,3.30
2023-04-15T22:51:41.060Z,2.80
2023-04-15T22:54:10.735Z,3.00
2023-04-15T22:56:40.905Z,3.30
2023-04-15T22:59:09.103Z,2.63
2023-04-15T23:01:38.405Z,2.90
2023-04-15T23:04:23.757Z,2.63
2023-04-15T23:06:56.571Z,3.43
2023-04-15T23:09:26.624Z,3.10
2023-04-15T23:11:59.931Z,3.17
2023-04-15T23:14:28.200Z,2.87
2023-04-15T23:16:58.598Z,2.53
2023-04-15T23:19:26.668Z,2.63
2023-04-15T23:21:54.891Z,3.20
2023-04-15T23:24:23.359Z,2.73
2023-04-15T23:26:53.017Z,3.57
2023-04-15T23:29:23.507Z,3.00
2023-04-15T23:31:51.826Z,3.20
2023-04-15T23:34:20.026Z,3.33
2023-04-15T23:36:47.949Z,3.17
2023-04-15T23:39:15.740Z,2.97
2023-04-15T23:41:43.788Z,3.33
2023-04-15T23:44:13.244Z,3.30
2023-04-15T23:46:41.528Z,3.50
2023-04-15T23:49:09.795Z,3.70
2023-04-15T23:51:38.219Z,3.50
2023-04-15T23:54:06.472Z,3.93
2023-04-15T23:56:34.921Z,4.37
2023-04-15T23:59:02.764Z,4.30
